sensor_id;sensor_type;location;lat;lon;timestamp;P1;durP1;ratioP1;P2;durP2;ratioP2
19207;SDS011;9737;59.466;18.036;2024-02-21T00:01:54;12.60;;;6.40;;
19207;SDS011;9737;59.466;18.036;2024-02-21T00:04:22;13.73;;;6.55;;
19207;SDS011;9737;59.466;18.036;2024-02-21T00:06:52;15.25;;;7.05;;
19207;SDS011;9737;59.466;18.036;2024-02-21T00:09:23;11.10;;;6.28;;
19207;SDS011;9737;59.466;18.036;2024-02-21T00:11:51;14.65;;;6.70;;
19207;SDS011;9737;59.466;18.036;2024-02-21T00:14:19;14.05;;;6.80;;
19207;SDS011;9737;59.466;18.036;2024-02-21T00:16:48;15.68;;;7.03;;
19207;SDS011;9737;59.466;18.036;2024-02-21T00:19:17;14.82;;;7.65;;
19207;SDS011;9737;59.466;18.036;2024-02-21T00:21:45;16.08;;;7.45;;
19207;SDS011;9737;59.466;18.036;2024-02-21T00:24:14;17.23;;;7.45;;
19207;SDS011;9737;59.466;18.036;2024-02-21T00:26:43;15.93;;;7.47;;
19207;SDS011;9737;59.466;18.036;2024-02-21T00:29:11;14.68;;;7.70;;
19207;SDS011;9737;59.466;18.036;2024-02-21T00:31:39;13.82;;;7.18;;
19207;SDS011;9737;59.466;18.036;2024-02-21T00:34:08;15.45;;;7.00;;
19207;SDS011;9737;59.466;18.036;2024-02-21T00:36:38;16.65;;;7.38;;
19207;SDS011;9737;59.466;18.036;2024-02-21T00:39:06;16.33;;;7.00;;
19207;SDS011;9737;59.466;18.036;2024-02-21T00:41:37;15.15;;;7.45;;
19207;SDS011;9737;59.466;18.036;2024-02-21T00:44:05;14.73;;;7.18;;
19207;SDS011;9737;59.466;18.036;2024-02-21T00:46:35;17.27;;;6.88;;
19207;SDS011;9737;59.466;18.036;2024-02-21T00:49:18;14.60;;;7.25;;
19207;SDS011;9737;59.466;18.036;2024-02-21T00:51:46;16.70;;;6.82;;
19207;SDS011;9737;59.466;18.036;2024-02-21T00:54:15;13.35;;;6.63;;
19207;SDS011;9737;59.466;18.036;2024-02-21T00:56:53;13.77;;;6.82;;
19207;SDS011;9737;59.466;18.036;2024-02-21T00:59:21;13.40;;;6.93;;
19207;SDS011;9737;59.466;18.036;2024-02-21T01:01:49;14.30;;;6.70;;
19207;SDS011;9737;59.466;18.036;2024-02-21T01:04:17;13.43;;;6.80;;
19207;SDS011;9737;59.466;18.036;2024-02-21T01:06:46;13.48;;;6.80;;
19207;SDS011;9737;59.466;18.036;2024-02-21T01:09:16;17.13;;;6.80;;
19207;SDS011;9737;59.466;18.036;2024-02-21T01:11:44;13.73;;;6.90;;
19207;SDS011;9737;59.466;18.036;2024-02-21T01:14:14;14.25;;;6.20;;
19207;SDS011;9737;59.466;18.036;2024-02-21T01:16:42;11.13;;;5.95;;
19207;SDS011;9737;59.466;18.036;2024-02-21T01:19:13;14.75;;;7.30;;
19207;SDS011;9737;59.466;18.036;2024-02-21T01:21:42;15.68;;;6.35;;
19207;SDS011;9737;59.466;18.036;2024-02-21T01:24:12;14.27;;;7.38;;
19207;SDS011;9737;59.466;18.036;2024-02-21T01:26:40;12.27;;;6.45;;
19207;SDS011;9737;59.466;18.036;2024-02-21T01:29:09;14.02;;;6.72;;
19207;SDS011;9737;59.466;18.036;2024-02-21T01:31:41;15.60;;;7.30;;
19207;SDS011;9737;59.466;18.036;2024-02-21T01:34:09;15.13;;;6.93;;
19207;SDS011;9737;59.466;18.036;2024-02-21T01:36:38;17.55;;;8.00;;
19207;SDS011;9737;59.466;18.036;2024-02-21T01:39:08;20.67;;;8.15;;
19207;SDS011;9737;59.466;18.036;2024-02-21T01:41:36;20.67;;;8.57;;
19207;SDS011;9737;59.466;18.036;2024-02-21T01:44:04;20.30;;;8.82;;
19207;SDS011;9737;59.466;18.036;2024-02-21T01:46:34;21.20;;;8.82;;
19207;SDS011;9737;59.466;18.036;2024-02-21T01:49:05;23.95;;;9.40;;
19207;SDS011;9737;59.466;18.036;2024-02-21T01:51:34;20.98;;;8.63;;
19207;SDS011;9737;59.466;18.036;2024-02-21T01:54:03;26.63;;;8.95;;
19207;SDS011;9737;59.466;18.036;2024-02-21T01:56:31;20.80;;;8.65;;
19207;SDS011;9737;59.466;18.036;2024-02-21T01:59:00;22.92;;;8.32;;
19207;SDS011;9737;59.466;18.036;2024-02-21T02:01:29;17.65;;;8.02;;
19207;SDS011;9737;59.466;18.036;2024-02-21T02:03:57;22.42;;;9.20;;
19207;SDS011;9737;59.466;18.036;2024-02-21T02:06:29;20.27;;;8.05;;
19207;SDS011;9737;59.466;18.036;2024-02-21T02:08:58;22.10;;;8.60;;
19207;SDS011;9737;59.466;18.036;2024-02-21T02:11:26;28.65;;;9.18;;
19207;SDS011;9737;59.466;18.036;2024-02-21T02:13:55;23.60;;;9.00;;
19207;SDS011;9737;59.466;18.036;2024-02-21T02:16:24;19.52;;;7.32;;
19207;SDS011;9737;59.466;18.036;2024-02-21T02:18:52;20.45;;;8.38;;
19207;SDS011;9737;59.466;18.036;2024-02-21T02:21:23;20.23;;;8.20;;
19207;SDS011;9737;59.466;18.036;2024-02-21T02:23:56;21.25;;;8.10;;
19207;SDS011;9737;59.466;18.036;2024-02-21T02:26:26;23.27;;;8.45;;
19207;SDS011;9737;59.466;18.036;2024-02-21T02:28:54;15.13;;;7.30;;
19207;SDS011;9737;59.466;18.036;2024-02-21T02:31:23;24.70;;;8.27;;
19207;SDS011;9737;59.466;18.036;2024-02-21T02:34:12;23.92;;;7.53;;
19207;SDS011;9737;59.466;18.036;2024-02-21T02:36:43;22.00;;;7.90;;
19207;SDS011;9737;59.466;18.036;2024-02-21T02:39:13;19.33;;;7.72;;
19207;SDS011;9737;59.466;18.036;2024-02-21T02:41:41;21.73;;;7.93;;
19207;SDS011;9737;59.466;18.036;2024-02-21T02:44:09;21.95;;;7.82;;
19207;SDS011;9737;59.466;18.036;2024-02-21T02:46:39;22.75;;;8.25;;
19207;SDS011;9737;59.466;18.036;2024-02-21T02:49:09;29.77;;;8.50;;
19207;SDS011;9737;59.466;18.036;2024-02-21T02:51:40;22.98;;;8.13;;
19207;SDS011;9737;59.466;18.036;2024-02-21T02:54:09;21.80;;;8.50;;
19207;SDS011;9737;59.466;18.036;2024-02-21T02:56:38;23.65;;;8.13;;
19207;SDS011;9737;59.466;18.036;2024-02-21T02:59:06;23.80;;;8.07;;
19207;SDS011;9737;59.466;18.036;2024-02-21T03:01:34;20.95;;;7.97;;
19207;SDS011;9737;59.466;18.036;2024-02-21T03:04:02;23.38;;;8.25;;
19207;SDS011;9737;59.466;18.036;2024-02-21T03:06:49;22.42;;;8.15;;
19207;SDS011;9737;59.466;18.036;2024-02-21T03:09:18;35.28;;;8.32;;
19207;SDS011;9737;59.466;18.036;2024-02-21T03:11:48;24.35;;;7.95;;
19207;SDS011;9737;59.466;18.036;2024-02-21T03:14:16;22.63;;;8.23;;
19207;SDS011;9737;59.466;18.036;2024-02-21T03:16:45;24.75;;;7.80;;
19207;SDS011;9737;59.466;18.036;2024-02-21T03:19:13;25.58;;;8.52;;
19207;SDS011;9737;59.466;18.036;2024-02-21T03:21:41;23.08;;;8.00;;
19207;SDS011;9737;59.466;18.036;2024-02-21T03:24:09;24.83;;;8.48;;
19207;SDS011;9737;59.466;18.036;2024-02-21T03:26:37;22.90;;;8.50;;
19207;SDS011;9737;59.466;18.036;2024-02-21T03:29:06;24.83;;;7.82;;
19207;SDS011;9737;59.466;18.036;2024-02-21T03:31:54;19.60;;;7.45;;
19207;SDS011;9737;59.466;18.036;2024-02-21T03:34:24;21.73;;;7.85;;
19207;SDS011;9737;59.466;18.036;2024-02-21T03:36:54;26.15;;;8.20;;
19207;SDS011;9737;59.466;18.036;2024-02-21T03:39:22;24.27;;;8.00;;
19207;SDS011;9737;59.466;18.036;2024-02-21T03:41:53;23.55;;;7.88;;
19207;SDS011;9737;59.466;18.036;2024-02-21T03:44:23;30.10;;;9.07;;
19207;SDS011;9737;59.466;18.036;2024-02-21T03:46:51;21.38;;;7.53;;
19207;SDS011;9737;59.466;18.036;2024-02-21T03:49:20;22.70;;;8.13;;
19207;SDS011;9737;59.466;18.036;2024-02-21T03:51:49;21.70;;;8.00;;
19207;SDS011;9737;59.466;18.036;2024-02-21T03:54:17;22.88;;;7.50;;
19207;SDS011;9737;59.466;18.036;2024-02-21T03:56:46;22.75;;;8.65;;
19207;SDS011;9737;59.466;18.036;2024-02-21T03:59:15;21.52;;;7.35;;
19207;SDS011;9737;59.466;18.036;2024-02-21T04:01:45;18.38;;;7.35;;
19207;SDS011;9737;59.466;18.036;2024-02-21T04:04:33;17.90;;;6.78;;
19207;SDS011;9737;59.466;18.036;2024-02-21T04:07:03;20.58;;;7.18;;
19207;SDS011;9737;59.466;18.036;2024-02-21T04:09:33;21.63;;;7.63;;
19207;SDS011;9737;59.466;18.036;2024-02-21T04:12:01;15.63;;;6.55;;
19207;SDS011;9737;59.466;18.036;2024-02-21T04:14:29;17.63;;;7.22;;
19207;SDS011;9737;59.466;18.036;2024-02-21T04:16:59;21.23;;;7.50;;
19207;SDS011;9737;59.466;18.036;2024-02-21T04:19:27;17.33;;;6.32;;
19207;SDS011;9737;59.466;18.036;2024-02-21T04:21:59;19.30;;;6.78;;
19207;SDS011;9737;59.466;18.036;2024-02-21T04:24:28;18.13;;;6.95;;
19207;SDS011;9737;59.466;18.036;2024-02-21T04:26:57;19.33;;;6.72;;
19207;SDS011;9737;59.466;18.036;2024-02-21T04:29:26;15.75;;;6.25;;
19207;SDS011;9737;59.466;18.036;2024-02-21T04:31:55;16.95;;;6.15;;
19207;SDS011;9737;59.466;18.036;2024-02-21T04:34:25;15.85;;;5.97;;
19207;SDS011;9737;59.466;18.036;2024-02-21T04:36:53;17.90;;;6.18;;
19207;SDS011;9737;59.466;18.036;2024-02-21T04:39:22;16.23;;;6.35;;
19207;SDS011;9737;59.466;18.036;2024-02-21T04:41:50;14.50;;;5.90;;
19207;SDS011;9737;59.466;18.036;2024-02-21T04:44:18;14.35;;;6.05;;
19207;SDS011;9737;59.466;18.036;2024-02-21T04:46:48;15.45;;;5.75;;
19207;SDS011;9737;59.466;18.036;2024-02-21T04:49:16;14.95;;;6.03;;
19207;SDS011;9737;59.466;18.036;2024-02-21T04:51:48;12.38;;;5.18;;
19207;SDS011;9737;59.466;18.036;2024-02-21T04:54:16;11.45;;;5.53;;
19207;SDS011;9737;59.466;18.036;2024-02-21T04:56:44;13.00;;;5.13;;
19207;SDS011;9737;59.466;18.036;2024-02-21T04:59:12;11.73;;;5.30;;
19207;SDS011;9737;59.466;18.036;2024-02-21T05:01:40;14.70;;;5.50;;
19207;SDS011;9737;59.466;18.036;2024-02-21T05:04:08;11.18;;;5.50;;
19207;SDS011;9737;59.466;18.036;2024-02-21T05:06:37;12.05;;;5.07;;
19207;SDS011;9737;59.466;18.036;2024-02-21T05:09:08;11.85;;;5.55;;
19207;SDS011;9737;59.466;18.036;2024-02-21T05:11:37;14.93;;;5.80;;
19207;SDS011;9737;59.466;18.036;2024-02-21T05:14:05;14.48;;;5.70;;
19207;SDS011;9737;59.466;18.036;2024-02-21T05:16:34;14.30;;;5.53;;
19207;SDS011;9737;59.466;18.036;2024-02-21T05:19:02;11.80;;;5.55;;
19207;SDS011;9737;59.466;18.036;2024-02-21T05:21:31;9.75;;;5.22;;
19207;SDS011;9737;59.466;18.036;2024-02-21T05:24:00;16.05;;;5.55;;
19207;SDS011;9737;59.466;18.036;2024-02-21T05:26:29;18.35;;;5.60;;
19207;SDS011;9737;59.466;18.036;2024-02-21T05:28:57;11.82;;;5.40;;
19207;SDS011;9737;59.466;18.036;2024-02-21T05:31:27;15.07;;;5.80;;
19207;SDS011;9737;59.466;18.036;2024-02-21T05:34:22;13.95;;;5.43;;
19207;SDS011;9737;59.466;18.036;2024-02-21T05:36:51;13.20;;;6.05;;
19207;SDS011;9737;59.466;18.036;2024-02-21T05:39:20;23.15;;;7.70;;
19207;SDS011;9737;59.466;18.036;2024-02-21T05:41:51;18.67;;;6.78;;
19207;SDS011;9737;59.466;18.036;2024-02-21T05:44:19;14.07;;;7.10;;
19207;SDS011;9737;59.466;18.036;2024-02-21T05:46:49;14.73;;;6.20;;
19207;SDS011;9737;59.466;18.036;2024-02-21T05:49:16;17.75;;;6.90;;
19207;SDS011;9737;59.466;18.036;2024-02-21T05:51:45;16.02;;;6.65;;
19207;SDS011;9737;59.466;18.036;2024-02-21T05:54:13;18.40;;;6.80;;
19207;SDS011;9737;59.466;18.036;2024-02-21T05:56:43;12.88;;;6.72;;
19207;SDS011;9737;59.466;18.036;2024-02-21T05:59:14;16.90;;;5.93;;
19207;SDS011;9737;59.466;18.036;2024-02-21T06:01:44;13.60;;;6.32;;
19207;SDS011;9737;59.466;18.036;2024-02-21T06:04:12;19.88;;;6.53;;
19207;SDS011;9737;59.466;18.036;2024-02-21T06:06:41;21.05;;;6.47;;
19207;SDS011;9737;59.466;18.036;2024-02-21T06:09:10;18.15;;;7.07;;
19207;SDS011;9737;59.466;18.036;2024-02-21T06:11:37;15.65;;;6.68;;
19207;SDS011;9737;59.466;18.036;2024-02-21T06:14:08;16.27;;;7.80;;
19207;SDS011;9737;59.466;18.036;2024-02-21T06:16:37;15.05;;;7.18;;
19207;SDS011;9737;59.466;18.036;2024-02-21T06:19:05;16.48;;;6.70;;
19207;SDS011;9737;59.466;18.036;2024-02-21T06:21:36;18.88;;;7.47;;
19207;SDS011;9737;59.466;18.036;2024-02-21T06:24:05;14.95;;;7.35;;
19207;SDS011;9737;59.466;18.036;2024-02-21T06:26:34;17.13;;;6.70;;
19207;SDS011;9737;59.466;18.036;2024-02-21T06:29:02;19.95;;;7.53;;
19207;SDS011;9737;59.466;18.036;2024-02-21T06:31:30;24.05;;;8.43;;
19207;SDS011;9737;59.466;18.036;2024-02-21T06:34:19;19.88;;;7.70;;
19207;SDS011;9737;59.466;18.036;2024-02-21T06:36:48;18.20;;;7.32;;
19207;SDS011;9737;59.466;18.036;2024-02-21T06:39:16;12.30;;;6.85;;
19207;SDS011;9737;59.466;18.036;2024-02-21T06:41:45;23.90;;;7.32;;
19207;SDS011;9737;59.466;18.036;2024-02-21T06:44:18;19.38;;;7.88;;
19207;SDS011;9737;59.466;18.036;2024-02-21T06:46:47;21.58;;;7.78;;
19207;SDS011;9737;59.466;18.036;2024-02-21T06:49:16;24.45;;;8.13;;
19207;SDS011;9737;59.466;18.036;2024-02-21T06:51:46;23.08;;;8.48;;
19207;SDS011;9737;59.466;18.036;2024-02-21T06:54:15;22.48;;;8.23;;
19207;SDS011;9737;59.466;18.036;2024-02-21T06:56:42;18.58;;;7.88;;
19207;SDS011;9737;59.466;18.036;2024-02-21T06:59:11;22.67;;;8.48;;
19207;SDS011;9737;59.466;18.036;2024-02-21T07:02:02;25.50;;;8.90;;
19207;SDS011;9737;59.466;18.036;2024-02-21T07:04:32;25.35;;;8.88;;
19207;SDS011;9737;59.466;18.036;2024-02-21T07:07:21;21.63;;;8.70;;
19207;SDS011;9737;59.466;18.036;2024-02-21T07:09:50;23.73;;;8.77;;
19207;SDS011;9737;59.466;18.036;2024-02-21T07:12:19;24.55;;;8.88;;
19207;SDS011;9737;59.466;18.036;2024-02-21T07:14:47;19.20;;;9.20;;
19207;SDS011;9737;59.466;18.036;2024-02-21T07:17:15;26.80;;;9.82;;
19207;SDS011;9737;59.466;18.036;2024-02-21T07:19:44;22.33;;;9.05;;
19207;SDS011;9737;59.466;18.036;2024-02-21T07:22:12;25.83;;;9.20;;
19207;SDS011;9737;59.466;18.036;2024-02-21T07:24:42;21.83;;;9.95;;
19207;SDS011;9737;59.466;18.036;2024-02-21T07:27:13;25.48;;;9.68;;
19207;SDS011;9737;59.466;18.036;2024-02-21T07:29:43;26.00;;;9.60;;
19207;SDS011;9737;59.466;18.036;2024-02-21T07:32:14;30.83;;;10.73;;
19207;SDS011;9737;59.466;18.036;2024-02-21T07:34:42;35.15;;;10.65;;
19207;SDS011;9737;59.466;18.036;2024-02-21T07:37:11;29.80;;;10.60;;
19207;SDS011;9737;59.466;18.036;2024-02-21T07:39:39;25.45;;;10.05;;
19207;SDS011;9737;59.466;18.036;2024-02-21T07:42:08;31.38;;;10.73;;
19207;SDS011;9737;59.466;18.036;2024-02-21T07:44:36;35.55;;;10.88;;
19207;SDS011;9737;59.466;18.036;2024-02-21T07:47:05;33.08;;;10.77;;
19207;SDS011;9737;59.466;18.036;2024-02-21T07:49:40;27.48;;;10.13;;
19207;SDS011;9737;59.466;18.036;2024-02-21T07:52:10;33.88;;;11.00;;
19207;SDS011;9737;59.466;18.036;2024-02-21T07:54:39;27.42;;;10.23;;
19207;SDS011;9737;59.466;18.036;2024-02-21T07:57:08;31.13;;;11.32;;
19207;SDS011;9737;59.466;18.036;2024-02-21T07:59:37;33.95;;;11.52;;
19207;SDS011;9737;59.466;18.036;2024-02-21T08:02:04;35.20;;;11.63;;
19207;SDS011;9737;59.466;18.036;2024-02-21T08:04:33;38.75;;;11.70;;
19207;SDS011;9737;59.466;18.036;2024-02-21T08:07:04;34.75;;;11.35;;
19207;SDS011;9737;59.466;18.036;2024-02-21T08:09:32;40.15;;;12.20;;
19207;SDS011;9737;59.466;18.036;2024-02-21T08:12:01;26.65;;;11.13;;
19207;SDS011;9737;59.466;18.036;2024-02-21T08:14:31;32.33;;;10.73;;
19207;SDS011;9737;59.466;18.036;2024-02-21T08:16:59;30.33;;;11.55;;
19207;SDS011;9737;59.466;18.036;2024-02-21T08:19:29;29.85;;;11.32;;
19207;SDS011;9737;59.466;18.036;2024-02-21T08:22:01;33.67;;;10.85;;
19207;SDS011;9737;59.466;18.036;2024-02-21T08:24:29;31.00;;;10.00;;
19207;SDS011;9737;59.466;18.036;2024-02-21T08:26:57;33.47;;;11.55;;
19207;SDS011;9737;59.466;18.036;2024-02-21T08:29:44;34.53;;;11.02;;
19207;SDS011;9737;59.466;18.036;2024-02-21T08:32:13;32.03;;;10.57;;
19207;SDS011;9737;59.466;18.036;2024-02-21T08:34:41;28.65;;;10.18;;
19207;SDS011;9737;59.466;18.036;2024-02-21T08:37:09;31.38;;;9.35;;
19207;SDS011;9737;59.466;18.036;2024-02-21T08:39:38;32.97;;;9.75;;
19207;SDS011;9737;59.466;18.036;2024-02-21T08:42:06;27.38;;;9.40;;
19207;SDS011;9737;59.466;18.036;2024-02-21T08:44:34;33.80;;;9.27;;
19207;SDS011;9737;59.466;18.036;2024-02-21T08:47:04;33.50;;;10.23;;
19207;SDS011;9737;59.466;18.036;2024-02-21T08:49:33;27.80;;;9.10;;
19207;SDS011;9737;59.466;18.036;2024-02-21T08:52:03;29.00;;;9.20;;
19207;SDS011;9737;59.466;18.036;2024-02-21T08:54:31;35.95;;;10.02;;
19207;SDS011;9737;59.466;18.036;2024-02-21T08:57:00;34.00;;;9.95;;
19207;SDS011;9737;59.466;18.036;2024-02-21T08:59:30;34.08;;;9.18;;
19207;SDS011;9737;59.466;18.036;2024-02-21T09:01:57;31.92;;;9.63;;
19207;SDS011;9737;59.466;18.036;2024-02-21T09:04:28;29.00;;;9.00;;
19207;SDS011;9737;59.466;18.036;2024-02-21T09:06:56;32.95;;;9.52;;
19207;SDS011;9737;59.466;18.036;2024-02-21T09:09:24;40.20;;;10.00;;
19207;SDS011;9737;59.466;18.036;2024-02-21T09:11:55;34.05;;;9.80;;
19207;SDS011;9737;59.466;18.036;2024-02-21T09:14:24;31.17;;;8.25;;
19207;SDS011;9737;59.466;18.036;2024-02-21T09:16:52;33.67;;;10.07;;
19207;SDS011;9737;59.466;18.036;2024-02-21T09:19:22;36.50;;;8.85;;
19207;SDS011;9737;59.466;18.036;2024-02-21T09:21:53;29.00;;;9.32;;
19207;SDS011;9737;59.466;18.036;2024-02-21T09:24:21;36.45;;;9.10;;
19207;SDS011;9737;59.466;18.036;2024-02-21T09:26:49;32.92;;;9.18;;
19207;SDS011;9737;59.466;18.036;2024-02-21T09:29:17;34.63;;;9.50;;
19207;SDS011;9737;59.466;18.036;2024-02-21T09:31:48;30.52;;;9.82;;
19207;SDS011;9737;59.466;18.036;2024-02-21T09:34:18;30.83;;;10.10;;
19207;SDS011;9737;59.466;18.036;2024-02-21T09:36:47;33.03;;;9.52;;
19207;SDS011;9737;59.466;18.036;2024-02-21T09:39:17;27.98;;;9.02;;
19207;SDS011;9737;59.466;18.036;2024-02-21T09:41:48;33.03;;;8.90;;
19207;SDS011;9737;59.466;18.036;2024-02-21T09:44:21;29.83;;;9.57;;
19207;SDS011;9737;59.466;18.036;2024-02-21T09:46:51;36.92;;;9.35;;
19207;SDS011;9737;59.466;18.036;2024-02-21T09:49:26;32.03;;;9.10;;
19207;SDS011;9737;59.466;18.036;2024-02-21T09:52:21;31.75;;;9.48;;
19207;SDS011;9737;59.466;18.036;2024-02-21T09:54:51;33.28;;;8.85;;
19207;SDS011;9737;59.466;18.036;2024-02-21T09:57:21;40.78;;;9.13;;
19207;SDS011;9737;59.466;18.036;2024-02-21T09:59:51;27.98;;;9.40;;
19207;SDS011;9737;59.466;18.036;2024-02-21T10:02:20;31.30;;;8.98;;
19207;SDS011;9737;59.466;18.036;2024-02-21T10:04:50;21.65;;;8.93;;
19207;SDS011;9737;59.466;18.036;2024-02-21T10:07:18;29.70;;;9.20;;
19207;SDS011;9737;59.466;18.036;2024-02-21T10:09:59;28.90;;;10.52;;
19207;SDS011;9737;59.466;18.036;2024-02-21T10:12:28;26.95;;;9.25;;
19207;SDS011;9737;59.466;18.036;2024-02-21T10:15:00;31.08;;;9.55;;
19207;SDS011;9737;59.466;18.036;2024-02-21T10:17:28;39.42;;;9.00;;
19207;SDS011;9737;59.466;18.036;2024-02-21T10:20:06;25.73;;;8.73;;
19207;SDS011;9737;59.466;18.036;2024-02-21T10:22:35;25.60;;;8.20;;
19207;SDS011;9737;59.466;18.036;2024-02-21T10:25:08;30.25;;;8.90;;
19207;SDS011;9737;59.466;18.036;2024-02-21T10:27:36;26.13;;;8.65;;
19207;SDS011;9737;59.466;18.036;2024-02-21T10:30:07;24.35;;;9.00;;
19207;SDS011;9737;59.466;18.036;2024-02-21T10:32:48;25.00;;;8.75;;
19207;SDS011;9737;59.466;18.036;2024-02-21T10:35:26;24.83;;;8.68;;
19207;SDS011;9737;59.466;18.036;2024-02-21T10:37:56;23.98;;;8.98;;
19207;SDS011;9737;59.466;18.036;2024-02-21T10:40:26;30.95;;;9.00;;
19207;SDS011;9737;59.466;18.036;2024-02-21T10:42:57;27.48;;;9.35;;
19207;SDS011;9737;59.466;18.036;2024-02-21T10:45:28;25.30;;;9.60;;
19207;SDS011;9737;59.466;18.036;2024-02-21T10:48:01;20.15;;;8.60;;
19207;SDS011;9737;59.466;18.036;2024-02-21T10:50:41;20.15;;;8.95;;
19207;SDS011;9737;59.466;18.036;2024-02-21T10:53:24;35.28;;;9.13;;
19207;SDS011;9737;59.466;18.036;2024-02-21T10:56:04;28.25;;;9.85;;
19207;SDS011;9737;59.466;18.036;2024-02-21T10:58:40;23.50;;;8.30;;
19207;SDS011;9737;59.466;18.036;2024-02-21T11:01:09;21.80;;;8.68;;
19207;SDS011;9737;59.466;18.036;2024-02-21T11:03:40;20.45;;;8.48;;
19207;SDS011;9737;59.466;18.036;2024-02-21T11:06:10;18.88;;;8.82;;
19207;SDS011;9737;59.466;18.036;2024-02-21T11:08:39;24.50;;;8.48;;
19207;SDS011;9737;59.466;18.036;2024-02-21T11:11:11;19.17;;;8.10;;
19207;SDS011;9737;59.466;18.036;2024-02-21T11:14:03;19.50;;;8.27;;
19207;SDS011;9737;59.466;18.036;2024-02-21T11:16:36;16.02;;;6.97;;
19207;SDS011;9737;59.466;18.036;2024-02-21T11:19:07;14.77;;;6.90;;
19207;SDS011;9737;59.466;18.036;2024-02-21T11:21:37;16.83;;;6.38;;
19207;SDS011;9737;59.466;18.036;2024-02-21T11:24:08;14.65;;;7.07;;
19207;SDS011;9737;59.466;18.036;2024-02-21T11:26:37;13.95;;;7.47;;
19207;SDS011;9737;59.466;18.036;2024-02-21T11:29:06;24.77;;;7.75;;
19207;SDS011;9737;59.466;18.036;2024-02-21T11:31:38;15.07;;;7.43;;
19207;SDS011;9737;59.466;18.036;2024-02-21T11:34:10;15.52;;;6.78;;
19207;SDS011;9737;59.466;18.036;2024-02-21T11:36:46;18.48;;;7.07;;
19207;SDS011;9737;59.466;18.036;2024-02-21T11:39:36;33.95;;;11.00;;
19207;SDS011;9737;59.466;18.036;2024-02-21T11:42:06;22.92;;;7.45;;
19207;SDS011;9737;59.466;18.036;2024-02-21T11:44:36;18.48;;;8.10;;
19207;SDS011;9737;59.466;18.036;2024-02-21T11:47:06;18.58;;;8.05;;
19207;SDS011;9737;59.466;18.036;2024-02-21T11:49:36;19.20;;;7.88;;
19207;SDS011;9737;59.466;18.036;2024-02-21T11:52:05;18.98;;;8.18;;
19207;SDS011;9737;59.466;18.036;2024-02-21T11:54:34;19.65;;;8.02;;
19207;SDS011;9737;59.466;18.036;2024-02-21T11:57:02;20.25;;;8.38;;
19207;SDS011;9737;59.466;18.036;2024-02-21T11:59:32;18.45;;;9.25;;
19207;SDS011;9737;59.466;18.036;2024-02-21T12:02:01;19.58;;;9.25;;
19207;SDS011;9737;59.466;18.036;2024-02-21T12:04:32;19.38;;;9.07;;
19207;SDS011;9737;59.466;18.036;2024-02-21T12:07:00;18.50;;;7.93;;
19207;SDS011;9737;59.466;18.036;2024-02-21T12:09:30;17.70;;;8.25;;
19207;SDS011;9737;59.466;18.036;2024-02-21T12:11:58;15.80;;;8.18;;
19207;SDS011;9737;59.466;18.036;2024-02-21T12:14:27;16.10;;;8.52;;
19207;SDS011;9737;59.466;18.036;2024-02-21T12:16:58;18.05;;;7.95;;
19207;SDS011;9737;59.466;18.036;2024-02-21T12:19:28;19.02;;;8.88;;
19207;SDS011;9737;59.466;18.036;2024-02-21T12:22:02;18.02;;;8.15;;
19207;SDS011;9737;59.466;18.036;2024-02-21T12:24:33;17.80;;;8.00;;
19207;SDS011;9737;59.466;18.036;2024-02-21T12:27:02;17.75;;;7.65;;
19207;SDS011;9737;59.466;18.036;2024-02-21T12:29:32;17.90;;;7.88;;
19207;SDS011;9737;59.466;18.036;2024-02-21T12:32:01;18.05;;;8.15;;
19207;SDS011;9737;59.466;18.036;2024-02-21T12:34:32;20.05;;;8.48;;
19207;SDS011;9737;59.466;18.036;2024-02-21T12:37:19;15.98;;;8.27;;
19207;SDS011;9737;59.466;18.036;2024-02-21T12:39:48;24.17;;;8.68;;
19207;SDS011;9737;59.466;18.036;2024-02-21T12:42:16;15.68;;;8.30;;
19207;SDS011;9737;59.466;18.036;2024-02-21T12:44:44;17.48;;;7.85;;
19207;SDS011;9737;59.466;18.036;2024-02-21T12:47:14;19.38;;;9.15;;
19207;SDS011;9737;59.466;18.036;2024-02-21T12:49:43;17.48;;;9.23;;
19207;SDS011;9737;59.466;18.036;2024-02-21T12:52:13;20.60;;;9.23;;
19207;SDS011;9737;59.466;18.036;2024-02-21T12:54:41;21.75;;;8.30;;
19207;SDS011;9737;59.466;18.036;2024-02-21T12:57:10;23.73;;;9.50;;
19207;SDS011;9737;59.466;18.036;2024-02-21T12:59:38;21.73;;;9.68;;
19207;SDS011;9737;59.466;18.036;2024-02-21T13:02:06;20.55;;;9.60;;
19207;SDS011;9737;59.466;18.036;2024-02-21T13:04:36;24.02;;;8.82;;
19207;SDS011;9737;59.466;18.036;2024-02-21T13:07:08;19.70;;;9.57;;
19207;SDS011;9737;59.466;18.036;2024-02-21T13:09:36;26.77;;;10.57;;
19207;SDS011;9737;59.466;18.036;2024-02-21T13:12:04;25.65;;;11.98;;
19207;SDS011;9737;59.466;18.036;2024-02-21T13:14:34;30.52;;;11.77;;
19207;SDS011;9737;59.466;18.036;2024-02-21T13:17:04;25.75;;;12.57;;
19207;SDS011;9737;59.466;18.036;2024-02-21T13:19:33;30.05;;;13.63;;
19207;SDS011;9737;59.466;18.036;2024-02-21T13:22:07;23.42;;;10.85;;
19207;SDS011;9737;59.466;18.036;2024-02-21T13:24:35;24.45;;;11.57;;
19207;SDS011;9737;59.466;18.036;2024-02-21T13:27:03;29.02;;;10.98;;
19207;SDS011;9737;59.466;18.036;2024-02-21T13:29:32;23.38;;;11.07;;
19207;SDS011;9737;59.466;18.036;2024-02-21T13:32:00;25.10;;;11.60;;
19207;SDS011;9737;59.466;18.036;2024-02-21T13:34:29;38.05;;;13.05;;
19207;SDS011;9737;59.466;18.036;2024-02-21T13:36:57;27.55;;;12.90;;
19207;SDS011;9737;59.466;18.036;2024-02-21T13:39:27;27.65;;;12.82;;
19207;SDS011;9737;59.466;18.036;2024-02-21T13:41:55;32.03;;;12.90;;
19207;SDS011;9737;59.466;18.036;2024-02-21T13:44:25;32.38;;;12.95;;
19207;SDS011;9737;59.466;18.036;2024-02-21T13:46:53;27.45;;;12.45;;
19207;SDS011;9737;59.466;18.036;2024-02-21T13:49:21;29.52;;;12.60;;
19207;SDS011;9737;59.466;18.036;2024-02-21T13:51:49;33.60;;;14.02;;
19207;SDS011;9737;59.466;18.036;2024-02-21T13:54:17;25.73;;;11.02;;
19207;SDS011;9737;59.466;18.036;2024-02-21T13:56:47;26.63;;;11.32;;
19207;SDS011;9737;59.466;18.036;2024-02-21T13:59:15;26.00;;;10.90;;
19207;SDS011;9737;59.466;18.036;2024-02-21T14:01:44;27.63;;;11.40;;
19207;SDS011;9737;59.466;18.036;2024-02-21T14:04:14;21.38;;;10.43;;
19207;SDS011;9737;59.466;18.036;2024-02-21T14:06:42;22.98;;;10.52;;
19207;SDS011;9737;59.466;18.036;2024-02-21T14:09:10;20.58;;;9.60;;
19207;SDS011;9737;59.466;18.036;2024-02-21T14:11:40;25.33;;;10.95;;
19207;SDS011;9737;59.466;18.036;2024-02-21T14:14:10;22.58;;;10.10;;
19207;SDS011;9737;59.466;18.036;2024-02-21T14:16:39;18.80;;;10.27;;
19207;SDS011;9737;59.466;18.036;2024-02-21T14:19:07;20.17;;;10.23;;
19207;SDS011;9737;59.466;18.036;2024-02-21T14:21:36;20.45;;;9.63;;
19207;SDS011;9737;59.466;18.036;2024-02-21T14:24:05;25.52;;;10.05;;
19207;SDS011;9737;59.466;18.036;2024-02-21T14:26:35;21.67;;;10.27;;
19207;SDS011;9737;59.466;18.036;2024-02-21T14:29:03;24.25;;;10.82;;
19207;SDS011;9737;59.466;18.036;2024-02-21T14:31:33;23.05;;;10.95;;
19207;SDS011;9737;59.466;18.036;2024-02-21T14:34:01;24.58;;;10.90;;
19207;SDS011;9737;59.466;18.036;2024-02-21T14:36:30;25.77;;;11.25;;
19207;SDS011;9737;59.466;18.036;2024-02-21T14:39:00;24.75;;;11.70;;
19207;SDS011;9737;59.466;18.036;2024-02-21T14:41:32;29.98;;;12.27;;
19207;SDS011;9737;59.466;18.036;2024-02-21T14:44:01;31.85;;;12.40;;
19207;SDS011;9737;59.466;18.036;2024-02-21T14:46:30;29.00;;;11.10;;
19207;SDS011;9737;59.466;18.036;2024-02-21T14:49:02;30.85;;;11.90;;